Time;durP1;ratioP1;P1;durP2;ratioP2;P2;SDS_P1;SDS_P2;PMS_P1;PMS_P2;Temp;Humidity;BMP_temperature;BMP_pressure;BME280_temperature;BME280_humidity;BME280_pressure;Samples;Min_cycle;Max_cycle;Signal;HPM_P1;HPM_P2
2022/11/01 00:01:14;;;;;;;102.10;52.65;;;;;;;11.58;77.15;100998.38;5029642;28;20060;-71
2022/11/01 00:03:41;;;;;;;95.18;52.30;;;;;;;11.50;77.33;100991.13;5029998;28;20045;-71
2022/11/01 00:06:07;;;;;;;101.95;53.50;;;;;;;11.38;77.89;100984.34;5030378;28;20073;-71
2022/11/01 00:08:34;;;;;;;98.93;52.60;;;;;;;11.38;77.90;100973.59;5031037;28;20041;-70
2022/11/01 00:11:06;;;;;;;92.22;53.63;;;;;;;11.28;78.37;100960.28;5030749;28;20060;-69
2022/11/01 00:13:32;;;;;;;89.65;54.00;;;;;;;11.19;78.58;100953.16;5030752;28;20071;-71
2022/11/01 00:15:59;;;;;;;99.10;54.78;;;;;;;11.31;78.28;100945.66;5030524;28;20436;-71
2022/11/01 00:18:26;;;;;;;95.80;56.60;;;;;;;11.32;77.92;100950.91;5030905;28;20128;-71
2022/11/01 00:20:52;;;;;;;93.03;54.78;;;;;;;11.35;77.83;100952.44;5033960;28;20044;-71
2022/11/01 00:23:19;;;;;;;89.03;54.50;;;;;;;11.20;78.59;100950.31;5033388;28;20057;-71
2022/11/01 00:25:46;;;;;;;90.75;56.28;;;;;;;11.26;78.43;100950.69;5030742;28;20045;-70
2022/11/01 00:28:12;;;;;;;89.82;55.40;;;;;;;11.34;77.98;100948.88;5031412;28;20055;-71
2022/11/01 00:30:39;;;;;;;98.43;55.97;;;;;;;11.26;78.47;100940.78;5030782;28;20496;-70
2022/11/01 00:33:06;;;;;;;92.22;55.58;;;;;;;11.26;78.70;100948.00;5031034;28;20053;-71
2022/11/01 00:35:35;;;;;;;98.35;55.85;;;;;;;11.24;78.29;100956.22;5030738;28;20052;-70
2022/11/01 00:38:02;;;;;;;93.80;56.25;;;;;;;11.27;78.84;100985.44;5030621;28;20056;-71
2022/11/01 00:40:29;;;;;;;96.15;55.97;;;;;;;11.25;79.13;100957.91;5030801;28;20096;-70
2022/11/01 00:42:56;;;;;;;92.93;56.38;;;;;;;11.37;78.52;100953.94;5030417;28;20045;-74
2022/11/01 00:45:22;;;;;;;104.90;57.65;;;;;;;11.66;77.33;100966.22;5030110;28;20171;-69
2022/11/01 00:47:49;;;;;;;89.15;52.33;;;;;;;11.64;76.77;100963.63;5030376;28;20052;-69
2022/11/01 00:50:15;;;;;;;93.03;54.90;;;;;;;11.59;77.39;100951.72;5031624;28;20053;-70
2022/11/01 00:52:42;;;;;;;87.95;53.15;;;;;;;11.61;77.13;100947.00;5030597;28;20045;-70
2022/11/01 00:55:08;;;;;;;88.28;54.92;;;;;;;11.60;76.85;100946.16;5031005;28;20047;-71
2022/11/01 00:57:35;;;;;;;94.38;53.17;;;;;;;11.57;77.18;100948.31;5029963;28;20057;-71
2022/11/01 01:00:03;;;;;;;87.60;51.55;;;;;;;11.31;78.41;100938.47;5030430;28;20057;-71
2022/11/01 01:02:29;;;;;;;92.30;51.40;;;;;;;11.25;78.42;100920.31;5034267;28;20068;-71
2022/11/01 01:04:56;;;;;;;89.43;49.88;;;;;;;11.36;78.45;100922.72;5034069;28;20049;-71
2022/11/01 01:07:22;;;;;;;83.95;48.10;;;;;;;11.25;78.53;100914.94;5032913;28;20051;-70
2022/11/01 01:09:49;;;;;;;75.78;49.95;;;;;;;11.17;79.00;100898.75;5032571;28;20082;-70
2022/11/01 01:12:15;;;;;;;88.70;48.65;;;;;;;11.22;78.74;100889.22;5032942;28;20440;-70
2022/11/01 01:14:42;;;;;;;80.93;48.03;;;;;;;11.16;78.95;100881.81;5032236;28;20050;-71
2022/11/01 01:17:08;;;;;;;88.97;49.92;;;;;;;11.14;79.30;100878.47;5032319;28;20052;-71
2022/11/01 01:19:35;;;;;;;77.65;47.10;;;;;;;11.22;79.22;100874.97;5032299;28;20496;-71
2022/11/01 01:22:01;;;;;;;72.15;46.72;;;;;;;11.05;79.59;100854.41;5032300;28;20048;-71
2022/11/01 01:24:28;;;;;;;84.90;48.15;;;;;;;11.25;79.36;100847.78;5032058;28;20056;-65
2022/11/01 01:26:54;;;;;;;83.30;47.78;;;;;;;11.16;79.47;100865.69;5034374;28;20057;-65
2022/11/01 01:29:21;;;;;;;87.35;50.13;;;;;;;11.27;78.77;100888.75;5034524;28;20045;-65
2022/11/01 01:31:49;;;;;;;92.28;48.97;;;;;;;11.39;78.72;100887.47;5035131;28;20048;-66
2022/11/01 01:34:17;;;;;;;82.75;47.88;;;;;;;11.65;77.54;100929.53;5034493;28;20489;-67
2022/11/01 01:36:45;;;;;;;92.78;49.97;;;;;;;11.72;77.14;100930.59;5034935;28;20049;-66
2022/11/01 01:39:11;;;;;;;81.38;48.75;;;;;;;11.60;77.58;100937.25;5034481;28;20042;-66
2022/11/01 01:41:56;;;;;;;80.13;47.00;;;;;;;11.76;76.85;100941.88;5033851;28;20041;-66
2022/11/01 01:45:13;;;;;;;75.68;45.65;;;;;;;11.76;76.61;100931.97;5033922;28;20055;-65
2022/11/01 01:47:43;;;;;;;79.35;46.13;;;;;;;11.69;76.48;100920.22;5033736;28;20432;-66
2022/11/01 01:50:14;;;;;;;73.78;45.47;;;;;;;11.60;76.78;100915.75;5033612;28;20050;-66
2022/11/01 01:53:30;;;;;;;57.85;33.25;;;;;;;11.68;76.61;100921.19;5033387;28;20053;-66
2022/11/01 01:56:01;;;;;;;76.80;45.20;;;;;;;11.63;76.64;100900.16;5030375;28;20053;-66
2022/11/01 01:58:32;;;;;;;73.45;45.72;;;;;;;11.58;77.01;100898.94;5033265;28;20493;-70
2022/11/01 02:00:58;;;;;;;76.55;45.00;;;;;;;11.58;76.98;100882.81;5031360;28;20049;-70
2022/11/01 02:03:30;;;;;;;73.82;43.53;;;;;;;11.43;77.50;100883.44;5031060;28;20080;-70
2022/11/01 02:09:38;;;;;;;75.88;42.45;;;;;;;11.40;77.63;100859.59;5032586;28;20091;-70
2022/11/01 02:12:05;;;;;;;76.50;45.05;;;;;;;11.28;78.21;100852.84;5032312;28;20045;-70
2022/11/01 02:14:32;;;;;;;78.25;45.10;;;;;;;11.36;77.78;100852.88;5032290;28;20050;-70
2022/11/01 02:17:25;;;;;;;78.20;43.63;;;;;;;11.41;77.46;100858.59;5032261;28;20049;-70
2022/11/01 02:20:07;;;;;;;75.88;44.42;;;;;;;11.45;77.35;100854.59;5032115;28;20045;-70
2022/11/01 02:22:45;;;;;;;76.88;46.50;;;;;;;11.26;77.98;100854.00;5032356;28;20124;-70
2022/11/01 02:25:31;;;;;;;74.63;45.35;;;;;;;11.33;77.62;100847.81;5032287;28;20054;-69
2022/11/01 02:28:24;;;;;;;75.85;43.30;;;;;;;11.28;77.85;100834.03;5032177;28;20064;-69
2022/11/01 02:31:09;;;;;;;75.45;46.45;;;;;;;11.25;78.10;100830.84;5032437;28;20037;-69
2022/11/01 02:33:51;;;;;;;79.65;46.08;;;;;;;11.22;77.95;100826.63;5032496;28;20050;-70
2022/11/01 02:36:35;;;;;;;68.65;44.97;;;;;;;11.19;78.15;100818.91;5031579;28;20053;-70
2022/11/01 02:39:09;;;;;;;78.22;46.13;;;;;;;11.12;78.59;100809.81;5031437;28;20049;-70
2022/11/01 02:41:50;;;;;;;80.57;47.30;;;;;;;11.18;78.20;100819.91;5032359;28;20219;-70
2022/11/01 02:44:25;;;;;;;76.25;45.00;;;;;;;11.12;78.40;100809.81;5032365;28;20052;-69
2022/11/01 02:47:00;;;;;;;80.90;47.50;;;;;;;11.11;78.45;100816.19;5031687;28;20045;-69
2022/11/01 02:49:35;;;;;;;85.47;48.55;;;;;;;11.02;78.44;100807.25;5031683;28;20050;-69
2022/11/01 02:52:04;;;;;;;83.38;49.47;;;;;;;11.15;78.31;100809.47;5031358;28;20443;-70
2022/11/01 02:54:36;;;;;;;86.00;48.03;;;;;;;11.16;77.76;100813.84;5031813;28;20493;-70
2022/11/01 02:57:23;;;;;;;77.30;48.67;;;;;;;11.07;78.33;100814.84;5026538;28;20053;-70
2022/11/01 02:59:49;;;;;;;82.30;49.22;;;;;;;11.17;77.88;100810.16;5030054;28;20416;-69
2022/11/01 03:02:16;;;;;;;76.43;47.65;;;;;;;11.18;77.70;100810.00;5032142;28;20425;-71
2022/11/01 03:04:42;;;;;;;80.85;48.78;;;;;;;11.31;77.20;100816.75;5032027;28;20137;-70
2022/11/01 03:07:12;;;;;;;76.53;47.75;;;;;;;11.20;77.46;100831.31;5030572;28;20444;-70
2022/11/01 03:09:39;;;;;;;75.90;47.42;;;;;;;11.33;76.90;100831.69;5030326;28;20405;-70
2022/11/01 03:12:21;;;;;;;82.20;49.20;;;;;;;11.25;76.97;100831.69;5030761;28;20045;-69
2022/11/01 03:15:04;;;;;;;84.20;47.85;;;;;;;11.37;76.69;100821.47;5022240;28;20053;-69
2022/11/01 03:17:40;;;;;;;86.97;48.17;;;;;;;11.31;76.85;100824.81;5030436;28;20100;-69
2022/11/01 03:20:16;;;;;;;76.80;48.00;;;;;;;11.20;77.16;100820.56;5030546;28;20056;-70
2022/11/01 03:22:54;;;;;;;87.03;47.65;;;;;;;11.18;77.04;100818.06;5029335;28;20050;-69
2022/11/01 03:25:43;;;;;;;77.90;48.85;;;;;;;11.26;77.00;100821.78;5029662;28;20053;-69
2022/11/01 03:28:23;;;;;;;83.88;50.05;;;;;;;10.97;77.59;100834.56;5030366;28;20061;-71
2022/11/01 03:31:08;;;;;;;91.27;49.10;;;;;;;11.15;77.35;100830.97;5030415;28;20052;-69
2022/11/01 03:33:41;;;;;;;83.47;49.90;;;;;;;11.19;77.09;100829.63;5029828;28;20053;-69
2022/11/01 03:36:14;;;;;;;81.78;48.10;;;;;;;11.08;77.11;100821.88;5030202;28;20424;-69
2022/11/01 03:38:47;;;;;;;78.00;49.10;;;;;;;11.13;77.09;100822.22;5029251;28;20485;-70
2022/11/01 03:41:17;;;;;;;87.55;49.83;;;;;;;11.11;77.02;100819.72;5030267;28;20382;-70
2022/11/01 03:43:46;;;;;;;58.47;35.13;;;;;;;11.11;77.03;100818.88;5030236;28;20038;-70
2022/11/01 03:46:14;;;;;;;78.88;49.67;;;;;;;11.08;77.47;100824.56;5029145;28;20505;-69
2022/11/01 03:48:40;;;;;;;87.82;50.25;;;;;;;11.11;77.15;100818.88;5030260;28;20041;-70
2022/11/01 03:51:07;;;;;;;83.32;50.78;;;;;;;11.10;77.08;100823.41;5029640;28;20060;-70
2022/11/01 03:53:33;;;;;;;82.53;48.35;;;;;;;11.07;77.25;100812.16;5029803;28;20049;-69
2022/11/01 03:56:00;;;;;;;87.65;48.88;;;;;;;11.00;77.25;100809.25;5029941;28;20065;-69
2022/11/01 03:58:40;;;;;;;93.95;51.22;;;;;;;11.01;77.19;100819.00;5029163;28;20053;-69
2022/11/01 04:01:12;;;;;;;96.78;51.33;;;;;;;11.01;77.23;100807.41;5030214;28;20103;-70
2022/11/01 04:03:40;;;;;;;88.75;49.75;;;;;;;11.04;76.94;100810.63;5029196;28;20129;-70
2022/11/01 04:06:07;;;;;;;82.00;48.10;;;;;;;10.95;77.64;100798.16;5029569;28;20052;-69
2022/11/01 04:08:35;;;;;;;88.88;49.75;;;;;;;10.95;77.23;100801.66;5029789;28;20057;-70
2022/11/01 04:11:03;;;;;;;89.00;49.85;;;;;;;10.81;78.24;100796.91;5028985;28;20045;-69
2022/11/01 04:13:29;;;;;;;86.47;50.80;;;;;;;10.81;77.89;100796.06;5029240;28;20489;-70
2022/11/01 04:21:28;;;;;;;87.18;50.20;;;;;;;10.84;77.75;100801.97;5028940;28;20054;-70
2022/11/01 04:23:55;;;;;;;79.55;47.72;;;;;;;10.94;77.21;100820.63;5030205;28;20045;-69
2022/11/01 04:26:22;;;;;;;88.88;49.13;;;;;;;10.69;77.93;100822.34;5029819;28;20049;-69
2022/11/01 04:28:55;;;;;;;89.22;48.38;;;;;;;10.58;78.61;100817.22;5029458;28;20049;-69
2022/11/01 04:31:29;;;;;;;83.65;49.70;;;;;;;10.86;77.68;100825.94;5029879;28;20393;-69
2022/11/01 04:33:57;;;;;;;82.45;49.92;;;;;;;10.89;77.04;100815.72;5030208;28;20416;-69
2022/11/01 04:36:24;;;;;;;83.70;49.03;;;;;;;10.91;76.85;100808.38;5033992;28;20053;-70
2022/11/01 04:38:54;;;;;;;78.78;47.83;;;;;;;10.84;77.03;100801.13;5033194;28;20045;-69
2022/11/01 04:41:26;;;;;;;82.55;47.47;;;;;;;10.82;77.07;100798.59;5033052;28;20152;-70
2022/11/01 04:43:55;;;;;;;80.68;49.10;;;;;;;10.90;76.81;100812.06;5033378;28;20049;-69
2022/11/01 04:46:22;;;;;;;87.45;50.67;;;;;;;10.93;76.74;100805.53;5033652;28;20052;-69
2022/11/01 04:48:48;;;;;;;81.80;46.92;;;;;;;10.99;76.53;100807.56;5033671;28;20046;-70
2022/11/01 04:51:15;;;;;;;78.75;47.22;;;;;;;10.90;76.92;100801.31;5033411;28;20042;-70
2022/11/01 04:53:41;;;;;;;79.10;47.88;;;;;;;10.91;76.84;100805.69;5033083;28;20499;-70
2022/11/01 04:56:11;;;;;;;79.00;45.85;;;;;;;10.69;77.81;100795.53;5033634;28;20505;-70
2022/11/01 04:58:37;;;;;;;86.93;47.75;;;;;;;10.81;77.37;100796.91;5032917;28;20050;-70
2022/11/01 05:01:12;;;;;;;85.90;49.75;;;;;;;10.44;78.59;100797.16;5032742;28;20448;-69
2022/11/01 05:03:38;;;;;;;86.95;49.95;;;;;;;10.61;78.86;100779.34;5033247;28;20396;-70
2022/11/01 05:06:05;;;;;;;84.95;48.78;;;;;;;10.70;78.54;100789.13;5033312;28;20042;-70
2022/11/01 05:08:32;;;;;;;99.43;51.72;;;;;;;10.42;79.37;100788.44;5032907;28;20051;-69
2022/11/01 05:10:58;;;;;;;104.75;54.65;;;;;;;10.25;80.17;100787.47;5033129;28;20049;-71
2022/11/01 05:13:25;;;;;;;95.88;53.15;;;;;;;10.56;79.29;100777.16;5033089;28;20503;-69
2022/11/01 05:15:51;;;;;;;83.75;51.78;;;;;;;10.64;78.63;100774.50;5033307;28;20500;-69
2022/11/01 05:18:40;;;;;;;99.60;54.50;;;;;;;10.35;79.78;100779.34;5032896;28;20487;-69
2022/11/01 05:21:07;;;;;;;93.18;51.88;;;;;;;10.53;79.57;100765.91;5033857;28;20484;-69
2022/11/01 05:23:33;;;;;;;95.70;54.08;;;;;;;10.41;79.73;100747.38;5032882;28;20060;-69
2022/11/01 05:25:59;;;;;;;92.18;52.85;;;;;;;10.70;78.46;100756.94;5032817;28;20050;-70
2022/11/01 05:28:26;;;;;;;102.93;54.20;;;;;;;10.04;79.99;100777.09;5033207;28;20056;-84
2022/11/01 05:30:52;;;;;;;99.18;51.80;;;;;;;10.31;79.74;100761.88;5031974;28;20055;-76
2022/11/01 05:33:19;;;;;;;95.35;53.70;;;;;;;10.31;79.99;100756.53;5034368;28;20045;-69
2022/11/01 05:35:45;;;;;;;102.13;55.97;;;;;;;10.27;80.02;100756.84;5032901;28;20048;-69
2022/11/01 05:38:12;;;;;;;97.40;54.00;;;;;;;10.15;80.49;100768.81;5032921;28;20049;-69
2022/11/01 05:40:38;;;;;;;97.35;52.67;;;;;;;9.99;80.86;100769.53;5027238;28;20046;-69
2022/11/01 05:43:04;;;;;;;115.07;55.22;;;;;;;9.56;82.50;100764.94;5032715;28;20038;-69
2022/11/01 05:45:31;;;;;;;96.25;53.72;;;;;;;9.98;81.31;100749.06;5032348;28;20053;-69
2022/11/01 05:48:02;;;;;;;94.38;54.67;;;;;;;9.70;82.08;100758.22;5032107;28;20050;-69
2022/11/01 05:50:29;;;;;;;102.30;54.58;;;;;;;9.63;82.35;100762.50;5032770;28;20056;-69
2022/11/01 05:53:06;;;;;;;102.25;56.10;;;;;;;9.80;81.73;100758.97;5032767;28;20054;-69
2022/11/01 05:55:33;;;;;;;102.60;55.33;;;;;;;9.75;81.88;100755.91;5032197;28;20477;-69
2022/11/01 05:58:00;;;;;;;98.25;56.80;;;;;;;9.91;81.13;100764.09;5032658;28;20045;-69
2022/11/01 06:00:27;;;;;;;96.90;54.40;;;;;;;9.72;81.95;100788.38;5032494;28;20045;-69
2022/11/01 06:02:56;;;;;;;100.45;56.50;;;;;;;9.79;82.16;100758.16;5025548;28;20103;-69
2022/11/01 06:05:23;;;;;;;96.88;56.55;;;;;;;9.80;81.40;100791.97;5032112;28;20045;-69
2022/11/01 06:07:49;;;;;;;96.85;55.92;;;;;;;9.74;82.05;100781.03;5032564;28;20053;-69
2022/11/01 06:10:16;;;;;;;105.85;58.00;;;;;;;9.49;82.39;100778.09;5027384;28;20045;-69
2022/11/01 06:12:42;;;;;;;99.18;56.58;;;;;;;9.92;81.90;100760.41;5043613;28;20052;-69
2022/11/01 06:15:09;;;;;;;95.80;56.03;;;;;;;10.07;80.72;100763.41;5032089;28;20053;-83
2022/11/01 06:17:36;;;;;;;113.32;57.70;;;;;;;10.04;80.46;100767.22;5031776;28;20408;-81
2022/11/01 06:20:03;;;;;;;102.80;57.63;;;;;;;10.20;80.14;100771.00;5032293;28;20049;-70
2022/11/01 06:22:29;;;;;;;112.05;57.95;;;;;;;9.76;81.80;100765.66;5032703;28;20037;-69
2022/11/01 06:24:55;;;;;;;95.80;53.67;;;;;;;10.22;79.69;100763.66;5031551;28;20497;-69
2022/11/01 06:27:22;;;;;;;103.28;56.72;;;;;;;10.43;78.86;100756.09;5024739;28;20041;-69
2022/11/01 06:29:48;;;;;;;99.50;53.85;;;;;;;10.53;78.14;100761.38;5032381;28;20491;-69
2022/11/01 06:32:15;;;;;;;107.38;56.60;;;;;;;10.42;78.19;100765.13;5029609;28;20506;-69
2022/11/01 06:34:41;;;;;;;95.78;51.38;;;;;;;10.29;79.04;100767.41;5032311;28;20053;-70
2022/11/01 06:37:10;;;;;;;87.15;52.35;;;;;;;10.17;79.38;100782.06;5032138;28;20051;-69
2022/11/01 06:39:37;;;;;;;87.70;50.38;;;;;;;10.22;79.05;100791.31;5023333;28;20057;-69
2022/11/01 06:42:04;;;;;;;84.50;49.78;;;;;;;10.27;78.92;100788.19;5032515;28;20057;-69
2022/11/01 06:44:30;;;;;;;80.65;48.97;;;;;;;9.96;79.52;100785.94;5032416;28;20050;-69
2022/11/01 06:46:57;;;;;;;85.32;47.45;;;;;;;9.92;79.52;100781.00;5032522;28;20045;-69
2022/11/01 06:49:24;;;;;;;84.38;48.25;;;;;;;9.98;79.42;100783.06;5031862;28;20051;-69
2022/11/01 06:51:50;;;;;;;80.53;46.70;;;;;;;10.36;78.76;100781.03;5013957;28;20046;-69
2022/11/01 06:54:17;;;;;;;76.45;46.30;;;;;;;10.43;78.19;100782.91;5032660;28;20508;-70
2022/11/01 06:56:46;;;;;;;77.80;45.80;;;;;;;10.67;77.15;100776.88;5032008;28;20052;-70
2022/11/01 06:59:13;;;;;;;73.63;43.97;;;;;;;10.72;76.56;100787.13;5030251;28;20049;-74
2022/11/01 07:01:40;;;;;;;70.28;42.97;;;;;;;10.84;76.17;100785.03;5031883;28;20045;-69
2022/11/01 07:04:06;;;;;;;67.20;41.28;;;;;;;10.45;77.17;100790.81;5031980;28;20128;-69
2022/11/01 07:06:33;;;;;;;71.80;41.35;;;;;;;10.25;78.32;100801.72;5032479;28;20106;-69
2022/11/01 07:09:00;;;;;;;65.07;39.80;;;;;;;10.08;78.37;100804.44;5031602;28;20041;-69
2022/11/01 07:11:26;;;;;;;64.70;39.72;;;;;;;10.17;78.91;100796.31;5031567;28;20061;-69
2022/11/01 07:13:58;;;;;;;68.75;40.45;;;;;;;9.99;79.37;100807.06;5032547;28;20045;-69
2022/11/01 07:16:25;;;;;;;72.05;41.00;;;;;;;9.98;80.29;100789.28;5031300;28;20493;-69
2022/11/01 07:18:51;;;;;;;66.88;40.17;;;;;;;10.20;78.81;100795.13;5031977;28;20046;-69
2022/11/01 07:21:18;;;;;;;67.63;40.83;;;;;;;10.30;78.53;100803.94;5032183;28;20045;-70
2022/11/01 07:23:44;;;;;;;67.68;40.67;;;;;;;10.85;76.40;100814.38;5031647;28;20507;-69
2022/11/01 07:26:11;;;;;;;71.70;37.67;;;;;;;10.46;77.40;100804.06;5031634;28;20052;-69
2022/11/01 07:28:38;;;;;;;64.82;38.65;;;;;;;10.48;77.43;100833.41;5031006;28;20095;-69
2022/11/01 07:31:05;;;;;;;68.53;38.80;;;;;;;10.64;76.91;100814.75;5031052;28;20379;-70
2022/11/01 07:33:32;;;;;;;69.25;38.00;;;;;;;10.46;77.37;100832.72;5030951;28;20053;-69
2022/11/01 07:36:00;;;;;;;87.22;47.63;;;;;;;10.57;77.38;100843.22;5030954;28;20049;-69
2022/11/01 07:38:26;;;;;;;71.57;41.53;;;;;;;10.34;77.29;100842.88;5030677;28;20561;-69
2022/11/01 07:40:53;;;;;;;66.18;37.70;;;;;;;10.42;77.43;100850.13;5030683;28;20417;-69
2022/11/01 07:43:20;;;;;;;60.10;36.60;;;;;;;10.62;76.78;100840.91;5030866;28;20054;-69
2022/11/01 07:45:47;;;;;;;70.65;37.78;;;;;;;10.56;76.78;100854.97;5030787;28;20045;-69
2022/11/01 07:48:16;;;;;;;64.10;35.10;;;;;;;10.52;76.97;100842.84;5031170;28;20056;-69
2022/11/01 07:50:43;;;;;;;61.05;35.47;;;;;;;10.52;76.55;100860.81;5030728;28;20049;-70
2022/11/01 07:53:15;;;;;;;57.55;35.05;;;;;;;10.58;76.70;100873.56;5032128;28;20055;-69
2022/11/01 07:55:43;;;;;;;55.40;31.75;;;;;;;10.59;76.26;100859.16;5031852;28;20045;-69
2022/11/01 07:58:10;;;;;;;56.03;32.38;;;;;;;10.63;76.11;100860.53;5031551;28;20055;-70
2022/11/01 08:00:38;;;;;;;59.00;33.67;;;;;;;10.57;76.90;100871.88;5031323;28;20045;-69
2022/11/01 08:03:21;;;;;;;55.38;33.10;;;;;;;10.80;75.51;100873.06;5031542;28;20049;-69
2022/11/01 08:05:47;;;;;;;52.92;31.88;;;;;;;10.71;75.72;100887.41;5031356;28;20045;-68
2022/11/01 08:08:15;;;;;;;61.25;31.23;;;;;;;10.60;75.45;100880.47;5032031;28;20050;-71
2022/11/01 08:10:41;;;;;;;59.92;30.52;;;;;;;10.91;74.81;100880.84;5035590;28;20051;-71
2022/11/01 08:13:18;;;;;;;55.42;30.70;;;;;;;10.90;75.06;100881.00;5035584;28;20420;-74
2022/11/01 08:15:46;;;;;;;60.53;29.08;;;;;;;11.19;73.96;100864.53;5037921;28;20052;-72
2022/11/01 08:18:13;;;;;;;55.88;28.80;;;;;;;11.25;73.52;100873.81;5036105;28;20524;-74
2022/11/01 08:20:40;;;;;;;49.38;26.48;;;;;;;10.93;74.09;100873.47;5035580;28;20050;-73
2022/11/01 08:23:07;;;;;;;48.83;27.33;;;;;;;11.14;73.77;100872.25;5035053;28;20136;-73
2022/11/01 08:25:34;;;;;;;44.00;26.55;;;;;;;10.73;75.04;100874.69;5035025;28;20054;-73
2022/11/01 08:28:03;;;;;;;46.03;26.65;;;;;;;11.14;73.69;100866.88;5035025;28;20049;-73
2022/11/01 08:30:30;;;;;;;47.65;24.98;;;;;;;11.11;74.05;100856.47;5034982;28;20060;-74
2022/11/01 08:33:00;;;;;;;47.17;24.60;;;;;;;11.04;73.80;100872.38;5033939;28;20045;-73
2022/11/01 08:35:28;;;;;;;43.53;25.73;;;;;;;11.27;72.97;100882.53;5035411;28;20113;-74
2022/11/01 08:37:55;;;;;;;46.83;25.05;;;;;;;11.41;72.46;100880.09;5034786;28;20511;-74
2022/11/01 08:40:22;;;;;;;41.17;24.67;;;;;;;11.44;72.08;100873.53;5034159;28;20056;-74
2022/11/01 08:42:48;;;;;;;38.03;22.67;;;;;;;11.44;72.00;100874.38;5034173;28;20045;-73
2022/11/01 08:45:15;;;;;;;34.30;22.95;;;;;;;11.95;70.70;100870.88;5034627;28;20065;-73
2022/11/01 08:47:42;;;;;;;38.33;21.95;;;;;;;11.85;70.17;100866.47;5034186;28;20037;-74
2022/11/01 08:50:12;;;;;;;40.95;23.85;;;;;;;12.21;69.87;100863.50;5032506;28;20076;-73
2022/11/01 08:52:39;;;;;;;37.78;21.27;;;;;;;12.36;69.11;100871.75;5033928;28;20045;-74
2022/11/01 08:55:07;;;;;;;34.88;21.40;;;;;;;12.46;68.71;100864.34;5033461;28;25057;-73
2022/11/01 08:57:33;;;;;;;34.50;21.42;;;;;;;12.70;68.18;100865.34;5033576;28;20116;-73
2022/11/01 09:00:00;;;;;;;38.05;20.83;;;;;;;12.34;69.42;100876.44;5033751;28;20053;-73
2022/11/01 09:02:26;;;;;;;40.67;20.98;;;;;;;12.45;68.70;100867.19;5034170;28;20235;-73
2022/11/01 09:04:53;;;;;;;35.97;21.30;;;;;;;12.68;68.20;100873.56;5033859;28;20408;-74
2022/11/01 09:07:20;;;;;;;38.63;19.92;;;;;;;12.85;67.70;100877.94;5033844;28;20053;-73
2022/11/01 09:09:46;;;;;;;39.58;19.98;;;;;;;13.05;66.89;100878.41;5033686;28;20057;-74
2022/11/01 09:12:12;;;;;;;38.22;19.70;;;;;;;12.98;67.06;100874.72;5033955;28;20061;-71
2022/11/01 09:14:40;;;;;;;37.22;19.77;;;;;;;13.04;67.07;100862.41;5033325;28;20042;-74
2022/11/01 09:17:06;;;;;;;33.97;18.95;;;;;;;13.40;65.75;100861.94;5033424;28;20045;-73
2022/11/01 09:19:33;;;;;;;34.47;18.58;;;;;;;13.71;64.81;100865.50;5033427;28;20205;-73
2022/11/01 09:21:59;;;;;;;33.83;18.25;;;;;;;13.97;63.39;100864.34;5032262;28;20045;-72
2022/11/01 09:24:26;;;;;;;31.23;18.33;;;;;;;14.11;63.21;100858.16;5033222;28;20054;-71
2022/11/01 09:26:52;;;;;;;28.58;16.67;;;;;;;14.84;60.80;100839.66;5033240;28;20049;-73
2022/11/01 09:29:20;;;;;;;29.65;16.48;;;;;;;14.93;60.44;100846.66;5033248;28;20076;-73
2022/11/01 09:31:50;;;;;;;37.38;17.83;;;;;;;14.45;61.72;100851.47;5033378;28;20099;-73
2022/11/01 09:34:16;;;;;;;29.35;15.93;;;;;;;14.73;60.61;100857.97;5032522;28;20053;-72
2022/11/01 09:36:43;;;;;;;29.55;16.02;;;;;;;14.04;62.95;100881.47;5033612;28;20052;-73
2022/11/01 09:39:09;;;;;;;27.95;16.50;;;;;;;13.72;64.07;100898.69;5032974;28;20061;-72
2022/11/01 09:41:44;;;;;;;35.00;16.45;;;;;;;13.67;64.55;100903.78;5032959;28;22586;-73
2022/11/01 09:44:15;;;;;;;31.90;15.68;;;;;;;13.61;64.61;100897.22;5032862;28;20052;-73
2022/11/01 09:46:51;;;;;;;27.88;16.50;;;;;;;13.51;64.88;100896.59;5033061;28;20056;-73
2022/11/01 09:49:26;;;;;;;29.38;15.93;;;;;;;13.71;64.47;100902.41;5033001;28;20057;-74
2022/11/01 09:51:54;;;;;;;29.08;15.73;;;;;;;13.54;64.88;100901.63;5032942;28;20041;-74
2022/11/01 09:54:23;;;;;;;30.70;16.30;;;;;;;13.75;64.33;100918.03;5032773;28;20393;-74
2022/11/01 09:57:17;;;;;;;30.88;15.52;;;;;;;13.45;65.42;100905.38;5032797;28;20428;-73
2022/11/01 10:00:02;;;;;;;34.72;16.08;;;;;;;13.48;65.42;100908.56;5032767;28;20152;-74
2022/11/01 10:02:41;;;;;;;37.05;16.38;;;;;;;13.03;67.17;100906.50;5032193;28;20111;-74
2022/11/01 10:05:16;;;;;;;33.67;16.05;;;;;;;13.39;66.38;100911.44;5032945;28;20068;-74
2022/11/01 10:08:00;;;;;;;35.13;16.75;;;;;;;13.21;66.80;100904.44;5032328;28;20045;-74
2022/11/01 10:10:45;;;;;;;30.50;15.63;;;;;;;13.50;65.74;100897.63;5032070;28;20124;-73
2022/11/01 10:13:34;;;;;;;31.40;15.10;;;;;;;13.71;65.40;100897.84;5032587;28;20045;-74
2022/11/01 10:16:07;;;;;;;34.03;15.15;;;;;;;13.45;66.08;100890.03;5032496;28;20064;-74
2022/11/01 10:19:03;;;;;;;39.90;16.02;;;;;;;13.69;65.59;100893.63;5033150;28;20056;-74
2022/11/01 10:22:04;;;;;;;37.78;17.13;;;;;;;13.27;66.07;100892.97;5032125;28;20049;-74
2022/11/01 10:24:44;;;;;;;23.98;14.35;;;;;;;13.61;65.90;100891.81;5010758;28;20049;-74
2022/11/01 10:27:29;;;;;;;32.50;14.73;;;;;;;13.59;65.54;100894.72;5032400;28;20420;-74
2022/11/01 10:30:06;;;;;;;;;;;;;;;13.46;66.28;100894.44;5031955;28;20048;-73
2022/11/01 10:32:39;;;;;;;30.77;14.63;;;;;;;13.57;66.13;100906.69;5032431;28;19925;-74
2022/11/01 10:35:22;;;;;;;30.85;15.82;;;;;;;13.18;67.20;100917.41;5045052;28;20105;-72
2022/11/01 10:38:13;;;;;;;27.95;14.68;;;;;;;13.25;67.41;100924.66;5050855;28;20497;-72
2022/11/01 10:41:00;;;;;;;32.20;14.68;;;;;;;13.37;67.10;100935.06;5050751;28;20050;-71
2022/11/01 10:43:26;;;;;;;28.08;15.35;;;;;;;13.39;67.02;100931.19;5050840;28;20078;-71
2022/11/01 10:45:56;;;;;;;27.23;14.48;;;;;;;13.23;67.86;100926.66;5050621;28;20044;-72
2022/11/01 10:48:28;;;;;;;38.00;15.45;;;;;;;13.47;67.55;100936.53;5050935;28;20148;-72
2022/11/01 10:51:00;;;;;;;35.47;14.25;;;;;;;13.58;67.26;100935.31;5041675;28;20050;-71
2022/11/01 10:53:37;;;;;;;30.17;15.03;;;;;;;13.64;67.16;100926.53;5033117;28;20054;-71
2022/11/01 10:56:11;;;;;;;23.50;13.07;;;;;;;13.94;66.06;100918.63;5031949;28;20376;-72
2022/11/01 10:58:48;;;;;;;23.33;13.18;;;;;;;14.18;65.28;100918.47;5023824;28;20070;-72
2022/11/01 11:01:20;;;;;;;24.40;12.50;;;;;;;14.33;65.03;100909.63;5037662;28;20069;-72
2022/11/01 11:03:49;;;;;;;29.38;11.65;;;;;;;14.76;63.85;100908.94;5030574;28;20057;-72
2022/11/01 11:06:15;;;;;;;23.17;10.77;;;;;;;14.99;63.28;100905.34;5029302;28;20053;-72
2022/11/01 11:08:47;;;;;;;23.75;10.95;;;;;;;16.16;60.35;100900.84;5030959;28;20052;-72
2022/11/01 11:11:16;;;;;;;24.48;9.68;;;;;;;16.28;58.87;100893.03;5029384;28;20053;-72
2022/11/01 11:13:51;;;;;;;24.15;10.50;;;;;;;16.46;58.35;100908.81;5029756;28;20057;-72
2022/11/01 11:16:32;;;;;;;21.88;8.90;;;;;;;16.58;57.91;100918.13;5023704;28;20559;-72
2022/11/01 11:19:20;;;;;;;18.48;8.60;;;;;;;16.02;59.67;100926.09;5029404;28;20233;-72
2022/11/01 11:21:48;;;;;;;20.20;8.13;;;;;;;16.12;59.16;100926.56;5027565;28;20073;-72
2022/11/01 11:24:18;;;;;;;21.92;8.57;;;;;;;15.62;60.72;100936.38;5029062;28;20049;-72
2022/11/01 11:26:48;;;;;;;21.45;7.50;;;;;;;15.33;62.09;100939.06;5026433;28;20056;-72
2022/11/01 11:29:47;;;;;;;21.80;8.57;;;;;;;15.07;63.00;100953.06;5026998;28;20041;-72
2022/11/01 11:32:18;;;;;;;29.02;8.90;;;;;;;14.65;64.42;100949.84;5029193;28;20077;-72
2022/11/01 11:35:03;;;;;;;20.50;8.60;;;;;;;14.60;64.64;100943.31;5031068;28;20489;-72